Forside
METAR-TAF:

METAR-TAF

Lufthavne :

Metcalf Field

Toledo, Ohio, USA

Breddekreds: 41-33-47N, længdekreds: 083-28-35W, højde: 189 m

Aktuelle vejr

Denne rapport blev lavet for 1 time og 6 minutter siden, kl. 20:53 UTC
Vind 13 kt fra vestsydvest
Temperatur 1°C
Fugtighed 86%
Tryk 1011 hPa
Sigt: 11.3 km
Overskyet i en højde af 1100 ft

METAR: KTDZ 262053Z AUTO 24013KT 7SM OVC011 01/M01 A2984 RMK AO2 SLP109 T00111006 56004

Tid: 16:59 (21:59 UTC)


TAF: fraværende

Vejrobservationer og prognoser fra mere end 4000 lufthavne (METAR og TAF).

De gule og røde prikker repræsenterer de meteorologiske stationer.

Flyt musen over at se navnet på stationen.

Så klik over at se vejr observationer og prognoser.

At skifte det kort: Klik på de grønne knapper med et sort kors for at zoome ind; på den grønne knap med en bindestreg for at zoome ud; eller på de grønne pile for tilstødende kort.


METAR-TAF: